sensor_id;sensor_type;location;lat;lon;timestamp;P1;durP1;ratioP1;P2;durP2;ratioP2
66272;SDS011;58450;52.150;4.466;2022-11-15T00:01:07;50.25;;;24.77;;
66272;SDS011;58450;52.150;4.466;2022-11-15T00:03:35;53.72;;;26.23;;
66272;SDS011;58450;52.150;4.466;2022-11-15T00:06:03;52.25;;;25.13;;
66272;SDS011;58450;52.150;4.466;2022-11-15T00:08:33;47.35;;;23.55;;
66272;SDS011;58450;52.150;4.466;2022-11-15T00:11:00;55.08;;;26.92;;
66272;SDS011;58450;52.150;4.466;2022-11-15T00:13:29;60.28;;;26.30;;
66272;SDS011;58450;52.150;4.466;2022-11-15T00:15:57;57.55;;;26.05;;
66272;SDS011;58450;52.150;4.466;2022-11-15T00:18:26;54.67;;;25.88;;
66272;SDS011;58450;52.150;4.466;2022-11-15T00:20:56;58.58;;;27.65;;
66272;SDS011;58450;52.150;4.466;2022-11-15T00:23:34;65.32;;;27.92;;
66272;SDS011;58450;52.150;4.466;2022-11-15T00:26:01;58.28;;;27.75;;
66272;SDS011;58450;52.150;4.466;2022-11-15T00:28:29;57.13;;;26.48;;
66272;SDS011;58450;52.150;4.466;2022-11-15T00:30:59;53.45;;;25.73;;
66272;SDS011;58450;52.150;4.466;2022-11-15T00:33:28;54.17;;;25.65;;
66272;SDS011;58450;52.150;4.466;2022-11-15T00:35:59;57.75;;;26.85;;
66272;SDS011;58450;52.150;4.466;2022-11-15T00:38:30;58.15;;;27.83;;
66272;SDS011;58450;52.150;4.466;2022-11-15T00:41:01;64.90;;;28.77;;
66272;SDS011;58450;52.150;4.466;2022-11-15T00:43:30;60.17;;;28.75;;
66272;SDS011;58450;52.150;4.466;2022-11-15T00:45:58;55.95;;;26.67;;
66272;SDS011;58450;52.150;4.466;2022-11-15T00:48:26;58.83;;;26.55;;
66272;SDS011;58450;52.150;4.466;2022-11-15T00:50:53;62.45;;;27.42;;
66272;SDS011;58450;52.150;4.466;2022-11-15T00:53:21;58.03;;;27.20;;
66272;SDS011;58450;52.150;4.466;2022-11-15T00:55:48;56.15;;;26.80;;
66272;SDS011;58450;52.150;4.466;2022-11-15T00:58:17;56.22;;;25.67;;
66272;SDS011;58450;52.150;4.466;2022-11-15T01:00:44;55.42;;;25.02;;
66272;SDS011;58450;52.150;4.466;2022-11-15T01:03:12;56.80;;;26.23;;
66272;SDS011;58450;52.150;4.466;2022-11-15T01:05:39;57.38;;;25.35;;
66272;SDS011;58450;52.150;4.466;2022-11-15T01:08:10;59.95;;;26.30;;
66272;SDS011;58450;52.150;4.466;2022-11-15T01:10:39;58.85;;;26.67;;
66272;SDS011;58450;52.150;4.466;2022-11-15T01:13:07;58.42;;;25.58;;
66272;SDS011;58450;52.150;4.466;2022-11-15T01:15:39;55.13;;;24.73;;
66272;SDS011;58450;52.150;4.466;2022-11-15T01:18:07;54.83;;;23.67;;
66272;SDS011;58450;52.150;4.466;2022-11-15T01:20:38;52.10;;;24.65;;
66272;SDS011;58450;52.150;4.466;2022-11-15T01:23:07;61.53;;;28.05;;
66272;SDS011;58450;52.150;4.466;2022-11-15T01:25:35;62.30;;;27.33;;
66272;SDS011;58450;52.150;4.466;2022-11-15T01:28:04;60.03;;;27.13;;
66272;SDS011;58450;52.150;4.466;2022-11-15T01:30:31;61.78;;;25.75;;
66272;SDS011;58450;52.150;4.466;2022-11-15T01:33:00;63.40;;;28.20;;
66272;SDS011;58450;52.150;4.466;2022-11-15T01:35:27;57.35;;;25.75;;
66272;SDS011;58450;52.150;4.466;2022-11-15T01:37:55;62.05;;;27.23;;
66272;SDS011;58450;52.150;4.466;2022-11-15T01:40:22;68.68;;;28.77;;
66272;SDS011;58450;52.150;4.466;2022-11-15T01:42:50;64.13;;;27.23;;
66272;SDS011;58450;52.150;4.466;2022-11-15T01:45:17;64.10;;;27.60;;
66272;SDS011;58450;52.150;4.466;2022-11-15T01:47:45;59.97;;;26.95;;
66272;SDS011;58450;52.150;4.466;2022-11-15T01:50:19;62.28;;;28.08;;
66272;SDS011;58450;52.150;4.466;2022-11-15T01:52:54;67.88;;;29.35;;
66272;SDS011;58450;52.150;4.466;2022-11-15T01:55:22;60.03;;;26.15;;
66272;SDS011;58450;52.150;4.466;2022-11-15T01:57:55;65.90;;;27.08;;
66272;SDS011;58450;52.150;4.466;2022-11-15T02:00:29;68.45;;;27.77;;
66272;SDS011;58450;52.150;4.466;2022-11-15T02:02:58;62.90;;;26.73;;
66272;SDS011;58450;52.150;4.466;2022-11-15T02:05:27;62.35;;;25.80;;
66272;SDS011;58450;52.150;4.466;2022-11-15T02:07:57;67.18;;;28.02;;
66272;SDS011;58450;52.150;4.466;2022-11-15T02:10:27;63.53;;;28.08;;
66272;SDS011;58450;52.150;4.466;2022-11-15T02:12:54;72.75;;;30.35;;
66272;SDS011;58450;52.150;4.466;2022-11-15T02:15:26;71.60;;;29.80;;
66272;SDS011;58450;52.150;4.466;2022-11-15T02:18:09;74.28;;;29.92;;
66272;SDS011;58450;52.150;4.466;2022-11-15T02:23:58;75.18;;;28.88;;
66272;SDS011;58450;52.150;4.466;2022-11-15T02:30:21;66.45;;;27.48;;
66272;SDS011;58450;52.150;4.466;2022-11-15T02:32:54;74.63;;;29.75;;
66272;SDS011;58450;52.150;4.466;2022-11-15T02:35:29;73.25;;;29.63;;
66272;SDS011;58450;52.150;4.466;2022-11-15T02:38:10;66.97;;;29.23;;
66272;SDS011;58450;52.150;4.466;2022-11-15T02:40:51;74.13;;;31.05;;
66272;SDS011;58450;52.150;4.466;2022-11-15T02:43:25;73.63;;;30.60;;
66272;SDS011;58450;52.150;4.466;2022-11-15T02:46:20;77.05;;;32.28;;
66272;SDS011;58450;52.150;4.466;2022-11-15T02:49:25;78.32;;;31.52;;
66272;SDS011;58450;52.150;4.466;2022-11-15T02:51:58;73.55;;;30.15;;
66272;SDS011;58450;52.150;4.466;2022-11-15T02:54:28;69.90;;;30.38;;
66272;SDS011;58450;52.150;4.466;2022-11-15T02:56:59;78.60;;;31.75;;
66272;SDS011;58450;52.150;4.466;2022-11-15T02:59:38;76.22;;;31.77;;
66272;SDS011;58450;52.150;4.466;2022-11-15T03:02:45;74.68;;;31.13;;
66272;SDS011;58450;52.150;4.466;2022-11-15T03:05:34;73.30;;;30.58;;
66272;SDS011;58450;52.150;4.466;2022-11-15T03:08:13;71.10;;;30.08;;
66272;SDS011;58450;52.150;4.466;2022-11-15T03:10:57;74.30;;;30.48;;
66272;SDS011;58450;52.150;4.466;2022-11-15T03:13:36;70.00;;;28.92;;
66272;SDS011;58450;52.150;4.466;2022-11-15T03:16:15;74.88;;;28.92;;
66272;SDS011;58450;52.150;4.466;2022-11-15T03:18:53;67.50;;;29.10;;
66272;SDS011;58450;52.150;4.466;2022-11-15T03:21:29;73.07;;;31.83;;
66272;SDS011;58450;52.150;4.466;2022-11-15T03:24:03;74.88;;;31.70;;
66272;SDS011;58450;52.150;4.466;2022-11-15T03:26:35;71.20;;;30.92;;
66272;SDS011;58450;52.150;4.466;2022-11-15T03:29:08;74.30;;;31.17;;
66272;SDS011;58450;52.150;4.466;2022-11-15T03:34:15;75.88;;;30.38;;
66272;SDS011;58450;52.150;4.466;2022-11-15T03:36:52;76.13;;;32.05;;
66272;SDS011;58450;52.150;4.466;2022-11-15T03:39:20;74.25;;;31.95;;
66272;SDS011;58450;52.150;4.466;2022-11-15T03:41:51;76.18;;;32.75;;
66272;SDS011;58450;52.150;4.466;2022-11-15T03:44:32;69.55;;;31.52;;
66272;SDS011;58450;52.150;4.466;2022-11-15T03:47:07;76.07;;;31.52;;
66272;SDS011;58450;52.150;4.466;2022-11-15T03:49:45;68.15;;;30.33;;
66272;SDS011;58450;52.150;4.466;2022-11-15T03:52:18;62.85;;;28.98;;
66272;SDS011;58450;52.150;4.466;2022-11-15T03:54:49;60.60;;;29.05;;
66272;SDS011;58450;52.150;4.466;2022-11-15T03:57:18;60.63;;;28.50;;
66272;SDS011;58450;52.150;4.466;2022-11-15T03:59:45;58.35;;;29.25;;
66272;SDS011;58450;52.150;4.466;2022-11-15T04:02:13;61.08;;;29.60;;
66272;SDS011;58450;52.150;4.466;2022-11-15T04:04:40;54.53;;;27.52;;
66272;SDS011;58450;52.150;4.466;2022-11-15T04:07:09;59.60;;;27.73;;
66272;SDS011;58450;52.150;4.466;2022-11-15T04:09:37;57.28;;;27.55;;
66272;SDS011;58450;52.150;4.466;2022-11-15T04:12:24;53.95;;;26.73;;
66272;SDS011;58450;52.150;4.466;2022-11-15T04:14:57;62.50;;;28.48;;
66272;SDS011;58450;52.150;4.466;2022-11-15T04:17:34;58.05;;;29.90;;
66272;SDS011;58450;52.150;4.466;2022-11-15T04:20:04;51.75;;;26.58;;
66272;SDS011;58450;52.150;4.466;2022-11-15T04:22:54;50.60;;;26.42;;
66272;SDS011;58450;52.150;4.466;2022-11-15T04:25:39;52.30;;;27.25;;
66272;SDS011;58450;52.150;4.466;2022-11-15T04:28:08;51.65;;;27.23;;
66272;SDS011;58450;52.150;4.466;2022-11-15T04:30:35;49.85;;;26.05;;
66272;SDS011;58450;52.150;4.466;2022-11-15T04:33:03;49.65;;;26.10;;
66272;SDS011;58450;52.150;4.466;2022-11-15T04:35:30;46.00;;;25.15;;
66272;SDS011;58450;52.150;4.466;2022-11-15T04:37:59;39.75;;;23.90;;
66272;SDS011;58450;52.150;4.466;2022-11-15T04:40:27;38.88;;;22.02;;
66272;SDS011;58450;52.150;4.466;2022-11-15T04:42:55;37.53;;;21.35;;
66272;SDS011;58450;52.150;4.466;2022-11-15T04:45:23;38.63;;;21.85;;
66272;SDS011;58450;52.150;4.466;2022-11-15T04:47:50;35.70;;;19.95;;
66272;SDS011;58450;52.150;4.466;2022-11-15T04:50:18;34.17;;;20.48;;
66272;SDS011;58450;52.150;4.466;2022-11-15T04:52:50;34.20;;;21.23;;
66272;SDS011;58450;52.150;4.466;2022-11-15T04:55:20;36.35;;;22.33;;
66272;SDS011;58450;52.150;4.466;2022-11-15T04:57:56;35.85;;;21.08;;
66272;SDS011;58450;52.150;4.466;2022-11-15T05:00:25;34.03;;;19.80;;
66272;SDS011;58450;52.150;4.466;2022-11-15T05:02:54;34.67;;;19.02;;
66272;SDS011;58450;52.150;4.466;2022-11-15T05:05:39;32.70;;;17.90;;
66272;SDS011;58450;52.150;4.466;2022-11-15T05:08:07;30.65;;;17.20;;
66272;SDS011;58450;52.150;4.466;2022-11-15T05:10:36;28.63;;;15.95;;
66272;SDS011;58450;52.150;4.466;2022-11-15T05:13:03;28.00;;;15.55;;
66272;SDS011;58450;52.150;4.466;2022-11-15T05:15:31;27.90;;;15.15;;
66272;SDS011;58450;52.150;4.466;2022-11-15T05:17:58;25.45;;;14.80;;
66272;SDS011;58450;52.150;4.466;2022-11-15T05:20:26;23.70;;;13.82;;
66272;SDS011;58450;52.150;4.466;2022-11-15T05:22:54;29.83;;;15.40;;
66272;SDS011;58450;52.150;4.466;2022-11-15T05:25:22;26.85;;;13.57;;
66272;SDS011;58450;52.150;4.466;2022-11-15T05:27:51;30.42;;;13.95;;
66272;SDS011;58450;52.150;4.466;2022-11-15T05:30:19;28.60;;;14.70;;
66272;SDS011;58450;52.150;4.466;2022-11-15T05:32:46;28.58;;;13.88;;
66272;SDS011;58450;52.150;4.466;2022-11-15T05:35:17;26.05;;;13.35;;
66272;SDS011;58450;52.150;4.466;2022-11-15T05:37:56;25.50;;;14.00;;
66272;SDS011;58450;52.150;4.466;2022-11-15T05:40:24;22.02;;;13.38;;
66272;SDS011;58450;52.150;4.466;2022-11-15T05:42:54;24.67;;;13.30;;
66272;SDS011;58450;52.150;4.466;2022-11-15T05:45:21;29.95;;;14.23;;
66272;SDS011;58450;52.150;4.466;2022-11-15T05:47:49;22.20;;;12.73;;
66272;SDS011;58450;52.150;4.466;2022-11-15T05:50:19;19.30;;;12.32;;
66272;SDS011;58450;52.150;4.466;2022-11-15T05:52:46;22.73;;;12.38;;
66272;SDS011;58450;52.150;4.466;2022-11-15T05:55:14;18.40;;;11.25;;
66272;SDS011;58450;52.150;4.466;2022-11-15T05:57:42;18.17;;;10.13;;
66272;SDS011;58450;52.150;4.466;2022-11-15T06:00:13;20.02;;;10.57;;
66272;SDS011;58450;52.150;4.466;2022-11-15T06:02:41;19.75;;;10.32;;
66272;SDS011;58450;52.150;4.466;2022-11-15T06:05:08;19.92;;;9.82;;
66272;SDS011;58450;52.150;4.466;2022-11-15T06:07:36;18.40;;;9.80;;
66272;SDS011;58450;52.150;4.466;2022-11-15T06:10:03;15.20;;;8.85;;
66272;SDS011;58450;52.150;4.466;2022-11-15T06:12:32;16.65;;;9.35;;
66272;SDS011;58450;52.150;4.466;2022-11-15T06:14:59;16.45;;;8.48;;
66272;SDS011;58450;52.150;4.466;2022-11-15T06:17:28;19.67;;;8.30;;
66272;SDS011;58450;52.150;4.466;2022-11-15T06:19:56;12.27;;;7.45;;
66272;SDS011;58450;52.150;4.466;2022-11-15T06:22:23;15.32;;;8.00;;
66272;SDS011;58450;52.150;4.466;2022-11-15T06:24:50;16.42;;;7.75;;
66272;SDS011;58450;52.150;4.466;2022-11-15T06:27:18;14.65;;;7.53;;
66272;SDS011;58450;52.150;4.466;2022-11-15T06:29:45;12.45;;;7.43;;
66272;SDS011;58450;52.150;4.466;2022-11-15T06:32:13;15.48;;;6.82;;
66272;SDS011;58450;52.150;4.466;2022-11-15T06:34:42;10.63;;;6.47;;
66272;SDS011;58450;52.150;4.466;2022-11-15T06:37:09;14.32;;;6.88;;
66272;SDS011;58450;52.150;4.466;2022-11-15T06:39:36;13.98;;;6.60;;
66272;SDS011;58450;52.150;4.466;2022-11-15T06:42:04;11.10;;;5.35;;
66272;SDS011;58450;52.150;4.466;2022-11-15T06:44:32;15.07;;;6.20;;
66272;SDS011;58450;52.150;4.466;2022-11-15T06:46:59;12.77;;;6.00;;
66272;SDS011;58450;52.150;4.466;2022-11-15T06:49:26;11.43;;;5.72;;
66272;SDS011;58450;52.150;4.466;2022-11-15T06:51:55;9.13;;;4.80;;
66272;SDS011;58450;52.150;4.466;2022-11-15T06:54:23;9.77;;;5.15;;
66272;SDS011;58450;52.150;4.466;2022-11-15T06:56:50;12.65;;;5.10;;
66272;SDS011;58450;52.150;4.466;2022-11-15T06:59:18;14.00;;;5.88;;
66272;SDS011;58450;52.150;4.466;2022-11-15T07:01:45;12.85;;;5.57;;
66272;SDS011;58450;52.150;4.466;2022-11-15T07:04:12;9.20;;;4.75;;
66272;SDS011;58450;52.150;4.466;2022-11-15T07:06:40;9.20;;;4.78;;
66272;SDS011;58450;52.150;4.466;2022-11-15T07:09:09;10.32;;;5.07;;
66272;SDS011;58450;52.150;4.466;2022-11-15T07:11:36;13.10;;;5.05;;
66272;SDS011;58450;52.150;4.466;2022-11-15T07:14:04;11.35;;;5.05;;
66272;SDS011;58450;52.150;4.466;2022-11-15T07:16:31;11.10;;;4.78;;
66272;SDS011;58450;52.150;4.466;2022-11-15T07:18:59;10.93;;;5.15;;
66272;SDS011;58450;52.150;4.466;2022-11-15T07:21:26;9.82;;;5.18;;
66272;SDS011;58450;52.150;4.466;2022-11-15T07:23:54;12.32;;;5.50;;
66272;SDS011;58450;52.150;4.466;2022-11-15T07:26:23;9.98;;;5.43;;
66272;SDS011;58450;52.150;4.466;2022-11-15T07:28:50;11.98;;;5.07;;
66272;SDS011;58450;52.150;4.466;2022-11-15T07:31:18;13.75;;;5.47;;
66272;SDS011;58450;52.150;4.466;2022-11-15T07:33:45;9.88;;;5.25;;
66272;SDS011;58450;52.150;4.466;2022-11-15T07:36:13;9.57;;;4.95;;
66272;SDS011;58450;52.150;4.466;2022-11-15T07:38:40;11.90;;;6.00;;
66272;SDS011;58450;52.150;4.466;2022-11-15T07:41:08;14.25;;;5.85;;
66272;SDS011;58450;52.150;4.466;2022-11-15T07:43:37;12.10;;;5.78;;
66272;SDS011;58450;52.150;4.466;2022-11-15T07:46:05;13.15;;;5.25;;
66272;SDS011;58450;52.150;4.466;2022-11-15T07:48:34;11.40;;;5.78;;
66272;SDS011;58450;52.150;4.466;2022-11-15T07:51:02;12.02;;;5.60;;
66272;SDS011;58450;52.150;4.466;2022-11-15T07:53:30;13.98;;;6.45;;
66272;SDS011;58450;52.150;4.466;2022-11-15T07:55:57;11.23;;;5.88;;
66272;SDS011;58450;52.150;4.466;2022-11-15T07:58:25;13.77;;;6.85;;
66272;SDS011;58450;52.150;4.466;2022-11-15T08:00:54;13.02;;;5.75;;
66272;SDS011;58450;52.150;4.466;2022-11-15T08:03:21;15.73;;;6.07;;
66272;SDS011;58450;52.150;4.466;2022-11-15T08:05:49;11.27;;;5.85;;
66272;SDS011;58450;52.150;4.466;2022-11-15T08:08:18;12.90;;;5.95;;
66272;SDS011;58450;52.150;4.466;2022-11-15T08:10:46;11.07;;;5.65;;
66272;SDS011;58450;52.150;4.466;2022-11-15T08:13:13;10.63;;;5.40;;
66272;SDS011;58450;52.150;4.466;2022-11-15T08:15:41;9.25;;;5.32;;
66272;SDS011;58450;52.150;4.466;2022-11-15T08:18:12;8.93;;;4.63;;
66272;SDS011;58450;52.150;4.466;2022-11-15T08:20:42;7.13;;;4.60;;
66272;SDS011;58450;52.150;4.466;2022-11-15T08:23:11;9.50;;;4.25;;
66272;SDS011;58450;52.150;4.466;2022-11-15T08:25:39;7.13;;;3.92;;
66272;SDS011;58450;52.150;4.466;2022-11-15T08:28:07;7.28;;;3.92;;
66272;SDS011;58450;52.150;4.466;2022-11-15T08:30:37;9.80;;;3.70;;
66272;SDS011;58450;52.150;4.466;2022-11-15T08:33:11;8.90;;;3.90;;
66272;SDS011;58450;52.150;4.466;2022-11-15T08:35:40;7.85;;;3.50;;
66272;SDS011;58450;52.150;4.466;2022-11-15T08:38:10;9.10;;;3.90;;
66272;SDS011;58450;52.150;4.466;2022-11-15T08:40:38;9.80;;;3.55;;
66272;SDS011;58450;52.150;4.466;2022-11-15T08:43:05;7.50;;;3.20;;
66272;SDS011;58450;52.150;4.466;2022-11-15T08:45:33;7.32;;;3.33;;
66272;SDS011;58450;52.150;4.466;2022-11-15T08:48:02;8.65;;;3.67;;
66272;SDS011;58450;52.150;4.466;2022-11-15T08:50:31;7.97;;;3.53;;
66272;SDS011;58450;52.150;4.466;2022-11-15T08:53:03;9.63;;;3.72;;
66272;SDS011;58450;52.150;4.466;2022-11-15T08:55:32;9.35;;;3.90;;
66272;SDS011;58450;52.150;4.466;2022-11-15T08:58:03;10.15;;;4.10;;
66272;SDS011;58450;52.150;4.466;2022-11-15T09:00:31;6.50;;;3.65;;
66272;SDS011;58450;52.150;4.466;2022-11-15T09:03:01;7.55;;;4.13;;
66272;SDS011;58450;52.150;4.466;2022-11-15T09:05:32;8.85;;;4.32;;
66272;SDS011;58450;52.150;4.466;2022-11-15T09:08:03;9.85;;;5.13;;
66272;SDS011;58450;52.150;4.466;2022-11-15T09:10:31;8.18;;;5.00;;
66272;SDS011;58450;52.150;4.466;2022-11-15T09:12:59;8.73;;;4.90;;
66272;SDS011;58450;52.150;4.466;2022-11-15T09:15:26;10.15;;;5.47;;
66272;SDS011;58450;52.150;4.466;2022-11-15T09:17:54;9.52;;;5.15;;
66272;SDS011;58450;52.150;4.466;2022-11-15T09:20:25;9.90;;;4.90;;
66272;SDS011;58450;52.150;4.466;2022-11-15T09:22:54;7.93;;;4.65;;
66272;SDS011;58450;52.150;4.466;2022-11-15T09:25:21;8.32;;;4.82;;
66272;SDS011;58450;52.150;4.466;2022-11-15T09:27:48;9.38;;;5.20;;
66272;SDS011;58450;52.150;4.466;2022-11-15T09:30:16;7.97;;;4.70;;
66272;SDS011;58450;52.150;4.466;2022-11-15T09:32:43;8.57;;;4.70;;
66272;SDS011;58450;52.150;4.466;2022-11-15T09:35:11;7.65;;;4.53;;
66272;SDS011;58450;52.150;4.466;2022-11-15T09:37:38;7.63;;;4.70;;
66272;SDS011;58450;52.150;4.466;2022-11-15T09:40:08;8.27;;;4.38;;
66272;SDS011;58450;52.150;4.466;2022-11-15T09:42:45;7.40;;;4.35;;
66272;SDS011;58450;52.150;4.466;2022-11-15T09:45:30;9.45;;;4.60;;
66272;SDS011;58450;52.150;4.466;2022-11-15T09:48:18;9.02;;;4.68;;
66272;SDS011;58450;52.150;4.466;2022-11-15T09:51:06;8.90;;;4.68;;
66272;SDS011;58450;52.150;4.466;2022-11-15T09:53:42;8.98;;;4.60;;
66272;SDS011;58450;52.150;4.466;2022-11-15T09:56:26;6.85;;;4.50;;
66272;SDS011;58450;52.150;4.466;2022-11-15T09:59:00;10.27;;;4.25;;
66272;SDS011;58450;52.150;4.466;2022-11-15T10:01:50;8.88;;;4.40;;
66272;SDS011;58450;52.150;4.466;2022-11-15T10:04:29;7.20;;;3.88;;
66272;SDS011;58450;52.150;4.466;2022-11-15T10:07:01;7.72;;;3.75;;
66272;SDS011;58450;52.150;4.466;2022-11-15T10:09:42;8.63;;;3.70;;
66272;SDS011;58450;52.150;4.466;2022-11-15T10:12:17;6.38;;;3.30;;
66272;SDS011;58450;52.150;4.466;2022-11-15T10:14:45;4.97;;;2.90;;
66272;SDS011;58450;52.150;4.466;2022-11-15T10:17:25;6.90;;;3.10;;
66272;SDS011;58450;52.150;4.466;2022-11-15T10:20:23;5.22;;;2.60;;
66272;SDS011;58450;52.150;4.466;2022-11-15T10:22:54;5.50;;;2.60;;
66272;SDS011;58450;52.150;4.466;2022-11-15T10:25:26;4.63;;;2.35;;
66272;SDS011;58450;52.150;4.466;2022-11-15T10:27:59;7.45;;;2.35;;
66272;SDS011;58450;52.150;4.466;2022-11-15T10:30:37;4.22;;;2.15;;
66272;SDS011;58450;52.150;4.466;2022-11-15T10:33:18;4.57;;;1.85;;
66272;SDS011;58450;52.150;4.466;2022-11-15T10:38:52;5.88;;;1.80;;
66272;SDS011;58450;52.150;4.466;2022-11-15T10:41:29;6.45;;;2.10;;
66272;SDS011;58450;52.150;4.466;2022-11-15T10:47:05;7.03;;;2.00;;
66272;SDS011;58450;52.150;4.466;2022-11-15T10:49:53;4.20;;;1.70;;
66272;SDS011;58450;52.150;4.466;2022-11-15T10:52:24;7.20;;;2.13;;
66272;SDS011;58450;52.150;4.466;2022-11-15T10:54:54;3.78;;;1.58;;
66272;SDS011;58450;52.150;4.466;2022-11-15T10:57:26;5.57;;;1.70;;
66272;SDS011;58450;52.150;4.466;2022-11-15T10:59:59;4.82;;;1.90;;
66272;SDS011;58450;52.150;4.466;2022-11-15T11:02:34;6.78;;;2.05;;
66272;SDS011;58450;52.150;4.466;2022-11-15T11:05:05;4.43;;;2.00;;
66272;SDS011;58450;52.150;4.466;2022-11-15T11:07:58;6.72;;;2.10;;
66272;SDS011;58450;52.150;4.466;2022-11-15T11:10:28;5.03;;;1.90;;
66272;SDS011;58450;52.150;4.466;2022-11-15T11:13:08;6.93;;;2.05;;
66272;SDS011;58450;52.150;4.466;2022-11-15T11:15:42;4.53;;;2.15;;
66272;SDS011;58450;52.150;4.466;2022-11-15T11:18:15;6.10;;;2.08;;
66272;SDS011;58450;52.150;4.466;2022-11-15T11:20:54;7.60;;;2.10;;
66272;SDS011;58450;52.150;4.466;2022-11-15T11:23:36;4.05;;;1.67;;
66272;SDS011;58450;52.150;4.466;2022-11-15T11:26:31;5.43;;;1.92;;
66272;SDS011;58450;52.150;4.466;2022-11-15T11:29:17;5.45;;;2.38;;
66272;SDS011;58450;52.150;4.466;2022-11-15T11:32:02;5.00;;;2.13;;
66272;SDS011;58450;52.150;4.466;2022-11-15T11:34:48;3.47;;;1.63;;
66272;SDS011;58450;52.150;4.466;2022-11-15T11:37:29;5.95;;;1.80;;
66272;SDS011;58450;52.150;4.466;2022-11-15T11:40:10;4.22;;;1.70;;
66272;SDS011;58450;52.150;4.466;2022-11-15T11:42:55;5.57;;;2.05;;
66272;SDS011;58450;52.150;4.466;2022-11-15T11:48:46;5.80;;;1.98;;
66272;SDS011;58450;52.150;4.466;2022-11-15T11:51:20;4.47;;;1.50;;
66272;SDS011;58450;52.150;4.466;2022-11-15T11:53:56;8.57;;;1.85;;
66272;SDS011;58450;52.150;4.466;2022-11-15T11:56:33;5.63;;;1.70;;
66272;SDS011;58450;52.150;4.466;2022-11-15T11:59:07;5.40;;;1.60;;
66272;SDS011;58450;52.150;4.466;2022-11-15T12:01:50;4.70;;;1.52;;
66272;SDS011;58450;52.150;4.466;2022-11-15T12:04:20;5.88;;;1.75;;
66272;SDS011;58450;52.150;4.466;2022-11-15T12:06:57;5.75;;;1.90;;
66272;SDS011;58450;52.150;4.466;2022-11-15T12:09:30;6.65;;;1.50;;
66272;SDS011;58450;52.150;4.466;2022-11-15T12:12:05;4.38;;;1.42;;
66272;SDS011;58450;52.150;4.466;2022-11-15T12:14:42;5.30;;;1.65;;
66272;SDS011;58450;52.150;4.466;2022-11-15T12:17:15;4.45;;;1.40;;
66272;SDS011;58450;52.150;4.466;2022-11-15T12:19:52;4.72;;;1.20;;
66272;SDS011;58450;52.150;4.466;2022-11-15T12:25:01;2.67;;;1.20;;
66272;SDS011;58450;52.150;4.466;2022-11-15T12:27:36;4.82;;;1.42;;
66272;SDS011;58450;52.150;4.466;2022-11-15T12:30:10;4.47;;;1.40;;
66272;SDS011;58450;52.150;4.466;2022-11-15T12:32:48;6.78;;;1.58;;
66272;SDS011;58450;52.150;4.466;2022-11-15T12:35:23;6.43;;;1.42;;
66272;SDS011;58450;52.150;4.466;2022-11-15T12:37:56;5.90;;;1.52;;
66272;SDS011;58450;52.150;4.466;2022-11-15T12:40:31;3.60;;;1.30;;
66272;SDS011;58450;52.150;4.466;2022-11-15T12:46:08;4.72;;;1.10;;
66272;SDS011;58450;52.150;4.466;2022-11-15T12:48:50;5.63;;;1.25;;
66272;SDS011;58450;52.150;4.466;2022-11-15T12:57:31;5.47;;;1.10;;
66272;SDS011;58450;52.150;4.466;2022-11-15T13:03:19;2.88;;;0.90;;
66272;SDS011;58450;52.150;4.466;2022-11-15T13:05:56;3.78;;;1.33;;
66272;SDS011;58450;52.150;4.466;2022-11-15T13:08:43;2.92;;;0.90;;
66272;SDS011;58450;52.150;4.466;2022-11-15T13:17:22;4.60;;;1.13;;
66272;SDS011;58450;52.150;4.466;2022-11-15T13:19:57;3.35;;;1.02;;
66272;SDS011;58450;52.150;4.466;2022-11-15T13:22:47;3.13;;;0.85;;
66272;SDS011;58450;52.150;4.466;2022-11-15T13:25:27;5.13;;;1.17;;
66272;SDS011;58450;52.150;4.466;2022-11-15T13:28:39;5.32;;;1.05;;
66272;SDS011;58450;52.150;4.466;2022-11-15T13:33:52;5.90;;;1.15;;
66272;SDS011;58450;52.150;4.466;2022-11-15T13:36:23;5.25;;;1.25;;
66272;SDS011;58450;52.150;4.466;2022-11-15T13:38:56;4.82;;;1.25;;
66272;SDS011;58450;52.150;4.466;2022-11-15T13:41:29;6.20;;;1.55;;
66272;SDS011;58450;52.150;4.466;2022-11-15T13:43:59;3.50;;;1.00;;
66272;SDS011;58450;52.150;4.466;2022-11-15T13:46:30;3.60;;;1.20;;
66272;SDS011;58450;52.150;4.466;2022-11-15T13:48:59;7.43;;;1.20;;
66272;SDS011;58450;52.150;4.466;2022-11-15T13:51:31;5.43;;;1.23;;
66272;SDS011;58450;52.150;4.466;2022-11-15T13:54:07;6.32;;;1.10;;
66272;SDS011;58450;52.150;4.466;2022-11-15T13:56:47;3.50;;;1.30;;
66272;SDS011;58450;52.150;4.466;2022-11-15T13:59:24;5.15;;;1.02;;
66272;SDS011;58450;52.150;4.466;2022-11-15T14:01:54;5.40;;;1.30;;
66272;SDS011;58450;52.150;4.466;2022-11-15T14:04:25;5.43;;;1.42;;
66272;SDS011;58450;52.150;4.466;2022-11-15T14:06:56;4.78;;;1.63;;
66272;SDS011;58450;52.150;4.466;2022-11-15T14:09:30;6.55;;;1.38;;
66272;SDS011;58450;52.150;4.466;2022-11-15T14:14:58;2.65;;;1.10;;
66272;SDS011;58450;52.150;4.466;2022-11-15T14:17:44;3.47;;;1.08;;
66272;SDS011;58450;52.150;4.466;2022-11-15T14:20:28;3.95;;;1.20;;
66272;SDS011;58450;52.150;4.466;2022-11-15T14:23:01;3.63;;;1.10;;
66272;SDS011;58450;52.150;4.466;2022-11-15T14:25:31;4.95;;;1.05;;
66272;SDS011;58450;52.150;4.466;2022-11-15T14:28:14;4.30;;;1.23;;
66272;SDS011;58450;52.150;4.466;2022-11-15T14:30:56;5.07;;;1.20;;
66272;SDS011;58450;52.150;4.466;2022-11-15T14:33:27;3.90;;;1.15;;
66272;SDS011;58450;52.150;4.466;2022-11-15T14:35:58;3.20;;;1.10;;
66272;SDS011;58450;52.150;4.466;2022-11-15T14:38:32;7.43;;;1.38;;
66272;SDS011;58450;52.150;4.466;2022-11-15T14:41:00;6.78;;;1.38;;
66272;SDS011;58450;52.150;4.466;2022-11-15T14:43:29;6.38;;;1.20;;
66272;SDS011;58450;52.150;4.466;2022-11-15T14:45:56;3.72;;;1.20;;
66272;SDS011;58450;52.150;4.466;2022-11-15T14:48:24;4.13;;;1.08;;
66272;SDS011;58450;52.150;4.466;2022-11-15T14:50:52;3.00;;;1.17;;
66272;SDS011;58450;52.150;4.466;2022-11-15T14:53:19;4.18;;;1.05;;
66272;SDS011;58450;52.150;4.466;2022-11-15T14:55:47;4.25;;;1.20;;
66272;SDS011;58450;52.150;4.466;2022-11-15T14:58:15;6.07;;;1.20;;
66272;SDS011;58450;52.150;4.466;2022-11-15T15:00:44;5.25;;;1.17;;
66272;SDS011;58450;52.150;4.466;2022-11-15T15:03:12;3.35;;;1.33;;
66272;SDS011;58450;52.150;4.466;2022-11-15T15:05:40;3.80;;;0.90;;
66272;SDS011;58450;52.150;4.466;2022-11-15T15:08:10;2.78;;;1.15;;
66272;SDS011;58450;52.150;4.466;2022-11-15T15:10:38;3.20;;;0.95;;
66272;SDS011;58450;52.150;4.466;2022-11-15T15:13:12;4.95;;;1.38;;
66272;SDS011;58450;52.150;4.466;2022-11-15T15:15:46;4.22;;;1.10;;
66272;SDS011;58450;52.150;4.466;2022-11-15T15:18:15;3.75;;;1.20;;
66272;SDS011;58450;52.150;4.466;2022-11-15T15:20:43;5.18;;;1.40;;
66272;SDS011;58450;52.150;4.466;2022-11-15T15:23:15;4.25;;;1.40;;
66272;SDS011;58450;52.150;4.466;2022-11-15T15:25:44;3.70;;;1.23;;
66272;SDS011;58450;52.150;4.466;2022-11-15T15:28:14;5.30;;;1.67;;
66272;SDS011;58450;52.150;4.466;2022-11-15T15:30:42;3.42;;;1.13;;
66272;SDS011;58450;52.150;4.466;2022-11-15T15:33:11;3.00;;;1.17;;
66272;SDS011;58450;52.150;4.466;2022-11-15T15:35:38;5.35;;;1.38;;
66272;SDS011;58450;52.150;4.466;2022-11-15T15:38:06;3.85;;;1.20;;
66272;SDS011;58450;52.150;4.466;2022-11-15T15:40:37;2.88;;;1.30;;
66272;SDS011;58450;52.150;4.466;2022-11-15T15:43:05;5.32;;;1.23;;
66272;SDS011;58450;52.150;4.466;2022-11-15T15:45:35;2.80;;;1.20;;
66272;SDS011;58450;52.150;4.466;2022-11-15T15:48:05;4.68;;;1.20;;
66272;SDS011;58450;52.150;4.466;2022-11-15T15:50:34;6.38;;;1.35;;